Time;durP1;ratioP1;P1;durP2;ratioP2;P2;SDS_P1;SDS_P2;PMS_P1;PMS_P2;Temp;Humidity;BMP_temperature;BMP_pressure;BME280_temperature;BME280_humidity;BME280_pressure;Samples;Min_cycle;Max_cycle;Signal;HPM_P1;HPM_P2
2021/10/16 00:02:03;;;;;;;47.80;24.37;;;;;;;2.71;82.25;101292.02;1773312;81;21205;-60
2021/10/16 00:05:10;;;;;;;57.35;26.77;;;;;;;2.75;82.20;101284.94;1812215;78;21207;-60
2021/10/16 00:08:15;;;;;;;64.82;28.65;;;;;;;2.79;82.11;101282.91;1773218;81;21744;-60
2021/10/16 00:11:21;;;;;;;58.70;29.35;;;;;;;2.82;82.07;101273.23;1812465;78;21239;-60
2021/10/16 00:14:27;;;;;;;89.75;39.45;;;;;;;2.88;82.01;101279.56;1811530;78;21767;-60
2021/10/16 00:17:32;;;;;;;84.72;42.65;;;;;;;2.90;81.72;101269.52;1812022;79;21373;-61
2021/10/16 00:20:38;;;;;;;73.47;37.08;;;;;;;2.83;81.28;101269.54;1773045;79;21241;-60
2021/10/16 00:23:44;;;;;;;60.52;28.07;;;;;;;2.83;81.48;101263.66;1812130;79;21163;-60
2021/10/16 00:26:49;;;;;;;61.28;28.92;;;;;;;2.85;81.30;101259.50;1772768;81;21362;-60
2021/10/16 00:29:55;;;;;;;57.13;25.70;;;;;;;2.82;81.13;101262.41;1812315;78;21177;-60
2021/10/16 00:33:01;;;;;;;50.12;25.35;;;;;;;2.84;81.21;101259.97;1773298;81;21347;-60
2021/10/16 00:36:07;;;;;;;43.48;23.27;;;;;;;2.86;81.07;101257.16;1811629;78;21737;-60
2021/10/16 00:39:13;;;;;;;46.80;22.37;;;;;;;2.85;80.82;101260.84;1742716;81;21465;-60
2021/10/16 00:42:18;;;;;;;47.10;22.60;;;;;;;2.82;80.61;101258.36;1790843;79;21307;-59
2021/10/16 00:45:25;;;;;;;48.38;24.85;;;;;;;2.81;80.54;101262.02;1791156;78;21327;-61
2021/10/16 00:48:31;;;;;;;46.75;23.87;;;;;;;2.76;80.42;101255.58;1792692;79;21204;-60
2021/10/16 00:51:36;;;;;;;51.53;26.40;;;;;;;2.71;80.46;101246.06;1788197;79;21433;-59
2021/10/16 00:54:43;;;;;;;57.85;26.02;;;;;;;2.68;80.46;101247.13;1793566;79;21196;-60
2021/10/16 00:57:50;;;;;;;52.90;26.40;;;;;;;2.63;80.39;101236.26;1794228;79;21196;-61
2021/10/16 01:00:49;;;;;;;49.93;24.67;;;;;;;2.65;80.75;101235.64;1751651;79;21180;-60
2021/10/16 01:03:55;;;;;;;47.73;25.17;;;;;;;2.72;80.82;101227.52;1787064;79;21168;-61
2021/10/16 01:07:03;;;;;;;51.55;24.80;;;;;;;2.80;81.02;101214.33;1792772;79;21356;-59
2021/10/16 01:10:09;;;;;;;47.53;25.82;;;;;;;2.89;81.05;101208.27;1766658;79;21361;-60
2021/10/16 01:13:15;;;;;;;54.88;25.57;;;;;;;2.97;80.98;101205.42;1725569;81;21193;-59
2021/10/16 01:16:20;;;;;;;49.60;25.37;;;;;;;3.06;80.92;101212.01;1790778;79;21294;-59
2021/10/16 01:19:28;;;;;;;46.00;24.10;;;;;;;3.06;80.41;101213.36;1779343;79;21329;-60
2021/10/16 01:22:35;;;;;;;50.43;25.32;;;;;;;3.07;80.25;101211.05;1792397;79;21186;-60
2021/10/16 01:25:41;;;;;;;46.45;23.92;;;;;;;3.07;80.21;101216.46;1768880;80;21859;-60
2021/10/16 01:28:46;;;;;;;51.05;24.20;;;;;;;3.12;80.03;101220.19;1806974;79;21302;-62
2021/10/16 01:31:55;;;;;;;46.83;23.92;;;;;;;3.15;79.80;101214.56;1769473;81;21214;-61
2021/10/16 01:34:59;;;;;;;48.30;25.35;;;;;;;3.11;79.47;101216.61;1807406;78;21377;-59
2021/10/16 01:38:06;;;;;;;42.33;22.20;;;;;;;3.14;79.67;101210.98;1768888;81;21327;-61
2021/10/16 01:41:13;;;;;;;46.75;22.20;;;;;;;3.23;79.84;101216.23;1772359;79;21383;-60
2021/10/16 01:44:20;;;;;;;43.00;23.73;;;;;;;3.31;79.58;101213.37;1812080;78;21333;-60
2021/10/16 01:47:25;;;;;;;60.20;29.77;;;;;;;3.32;79.23;101210.16;1812231;79;21175;-63
2021/10/16 01:50:30;;;;;;;60.12;30.08;;;;;;;3.31;78.98;101215.20;1773387;79;21280;-60
2021/10/16 01:53:37;;;;;;;67.40;33.83;;;;;;;3.29;78.90;101210.38;1812469;78;21254;-59
2021/10/16 01:56:43;;;;;;;49.60;27.35;;;;;;;3.31;79.00;101198.97;1773628;81;21879;-62
2021/10/16 01:59:52;;;;;;;43.90;25.85;;;;;;;3.37;79.10;101199.40;1811904;78;21334;-60
2021/10/16 02:02:57;;;;;;;44.23;24.02;;;;;;;3.39;79.04;101194.75;1773550;80;21197;-59
2021/10/16 02:06:04;;;;;;;40.55;22.48;;;;;;;3.45;79.29;101194.30;1810048;78;21195;-60
2021/10/16 02:09:12;;;;;;;38.30;21.82;;;;;;;3.51;79.11;101185.73;1812135;78;21195;-61
2021/10/16 02:12:17;;;;;;;37.95;20.02;;;;;;;3.59;79.16;101183.33;1773533;81;21209;-61
2021/10/16 02:15:23;;;;;;;33.70;19.90;;;;;;;3.67;79.02;101189.05;1812347;78;21318;-61
2021/10/16 02:18:31;;;;;;;36.50;21.37;;;;;;;3.72;78.89;101186.88;1773737;80;21358;-62
2021/10/16 02:21:38;;;;;;;49.70;22.45;;;;;;;3.76;78.75;101181.59;1813054;78;21206;-61
2021/10/16 02:24:37;;;;;;;47.75;23.25;;;;;;;3.75;78.47;101190.70;1812240;78;21368;-63
2021/10/16 02:27:42;;;;;;;50.35;27.32;;;;;;;3.78;78.48;101191.83;1773399;81;21320;-61
2021/10/16 02:30:48;;;;;;;41.63;21.85;;;;;;;3.80;78.38;101183.12;1812597;78;21345;-61
2021/10/16 02:33:56;;;;;;;36.93;19.80;;;;;;;3.80;78.43;101174.12;1773899;81;21189;-60
2021/10/16 02:37:03;;;;;;;37.78;20.50;;;;;;;3.83;78.51;101172.53;1804996;78;21203;-60
2021/10/16 02:40:09;;;;;;;36.40;21.00;;;;;;;3.82;78.30;101166.24;1773372;79;21366;-60
2021/10/16 02:43:14;;;;;;;40.12;20.15;;;;;;;3.86;78.56;101170.47;1813045;79;21342;-60
2021/10/16 02:46:21;;;;;;;43.68;21.97;;;;;;;3.91;78.59;101173.70;1773980;79;21402;-60
2021/10/16 02:49:28;;;;;;;35.05;19.80;;;;;;;3.89;78.21;101177.01;1813137;78;21255;-60
2021/10/16 02:52:34;;;;;;;45.98;19.77;;;;;;;3.87;78.12;101174.05;1774278;81;21221;-61
2021/10/16 02:55:39;;;;;;;44.60;21.87;;;;;;;3.82;77.96;101176.23;1813350;78;21419;-61
2021/10/16 02:58:47;;;;;;;38.38;20.88;;;;;;;3.80;78.10;101179.53;1773945;81;21213;-62
2021/10/16 03:01:55;;;;;;;38.67;21.52;;;;;;;3.79;78.03;101175.95;1812751;79;21394;-61
2021/10/16 03:05:03;;;;;;;42.00;20.85;;;;;;;3.75;78.01;101178.53;1773463;79;21406;-63
2021/10/16 03:08:07;;;;;;;41.35;22.52;;;;;;;3.80;78.39;101172.28;1811070;79;21408;-61
2021/10/16 03:11:15;;;;;;;41.88;22.70;;;;;;;3.89;78.50;101180.20;1773882;79;21209;-60
2021/10/16 03:14:21;;;;;;;40.67;22.07;;;;;;;3.95;78.41;101174.31;1812532;78;21381;-60
2021/10/16 03:17:26;;;;;;;40.78;21.15;;;;;;;3.97;78.15;101181.37;1774051;81;21396;-61
2021/10/16 03:20:31;;;;;;;38.95;20.52;;;;;;;4.02;78.34;101188.66;1812986;78;21345;-60
2021/10/16 03:23:38;;;;;;;41.50;21.10;;;;;;;4.08;78.51;101173.30;1773886;81;21382;-61
2021/10/16 03:26:45;;;;;;;35.80;20.17;;;;;;;4.10;78.38;101156.45;1812869;79;21254;-61
2021/10/16 03:29:50;;;;;;;41.05;19.98;;;;;;;4.13;78.77;101154.86;1757671;79;21229;-59
2021/10/16 03:32:57;;;;;;;36.13;19.42;;;;;;;4.20;79.04;101143.91;1812729;79;21330;-62
2021/10/16 03:36:02;;;;;;;31.62;19.17;;;;;;;4.24;78.71;101157.61;1774243;79;21399;-61
2021/10/16 03:39:07;;;;;;;37.00;18.73;;;;;;;4.22;78.62;101155.50;1813200;78;21261;-59
2021/10/16 03:42:13;;;;;;;34.60;20.27;;;;;;;4.27;78.85;101164.15;1771959;80;21878;-61
2021/10/16 03:45:21;;;;;;;35.35;20.27;;;;;;;4.30;78.60;101166.63;1742334;81;21375;-60
2021/10/16 03:48:28;;;;;;;39.80;20.65;;;;;;;4.24;78.16;101165.74;1765982;81;21206;-60
2021/10/16 03:51:34;;;;;;;44.48;21.77;;;;;;;4.17;78.00;101154.98;1770750;81;21314;-60
2021/10/16 03:54:39;;;;;;;37.23;21.60;;;;;;;4.15;78.07;101154.73;1809325;78;21200;-61
2021/10/16 03:57:45;;;;;;;35.50;20.62;;;;;;;4.13;78.05;101156.21;1809241;79;21176;-61
2021/10/16 04:00:52;;;;;;;38.65;19.35;;;;;;;4.13;78.29;101167.53;1770343;79;21290;-60
2021/10/16 04:03:58;;;;;;;33.50;18.98;;;;;;;4.14;78.50;101170.60;1809409;78;21401;-62
2021/10/16 04:07:04;;;;;;;35.90;21.00;;;;;;;4.14;78.55;101167.89;1770730;81;21351;-62
2021/10/16 04:10:15;;;;;;;32.98;19.37;;;;;;;4.15;78.80;101169.16;1809925;78;21831;-60
2021/10/16 04:13:22;;;;;;;41.13;21.82;;;;;;;4.15;78.87;101171.88;1770707;81;21924;-60
2021/10/16 04:16:30;;;;;;;40.17;21.20;;;;;;;4.14;78.99;101167.41;1809548;79;21322;-61
2021/10/16 04:19:36;;;;;;;35.83;21.68;;;;;;;4.17;79.30;101160.40;1809518;78;21370;-60
2021/10/16 04:22:42;;;;;;;35.38;21.07;;;;;;;4.22;79.40;101172.24;1809442;79;21191;-61
2021/10/16 04:25:47;;;;;;;32.50;19.02;;;;;;;4.24;79.43;101171.64;1770807;79;21363;-60
2021/10/16 04:28:53;;;;;;;36.40;20.68;;;;;;;4.25;79.45;101172.04;1809710;78;21152;-61
2021/10/16 04:32:06;;;;;;;36.68;21.77;;;;;;;4.27;79.46;101182.25;1768556;80;21904;-59
2021/10/16 04:35:14;;;;;;;39.83;20.08;;;;;;;4.34;79.65;101183.52;1809596;78;21216;-60
2021/10/16 04:38:21;;;;;;;35.88;20.85;;;;;;;4.43;79.59;101178.74;1770612;81;21376;-60
2021/10/16 04:41:27;;;;;;;37.48;21.02;;;;;;;4.48;79.53;101183.33;1804629;79;21192;-62
2021/10/16 04:44:33;;;;;;;76.05;32.17;;;;;;;4.56;79.69;101180.41;1771632;79;21227;-60
2021/10/16 04:47:42;;;;;;;50.73;23.85;;;;;;;4.68;79.82;101176.37;1775220;81;21756;-60
2021/10/16 04:50:52;;;;;;;40.38;21.23;;;;;;;4.81;79.87;101173.94;1774559;79;21753;-60
2021/10/16 04:53:58;;;;;;;48.15;24.87;;;;;;;4.92;79.51;101181.22;1775616;81;21263;-60
2021/10/16 04:57:05;;;;;;;40.17;23.20;;;;;;;4.99;79.18;101184.71;1775562;81;21189;-61
2021/10/16 05:00:13;;;;;;;40.10;21.70;;;;;;;5.06;79.01;101183.22;1775797;79;21276;-59
2021/10/16 05:03:18;;;;;;;39.27;20.92;;;;;;;5.14;78.96;101183.99;1774825;81;21829;-62
2021/10/16 05:06:20;;;;;;;41.20;25.17;;;;;;;5.20;78.94;101167.22;1751174;81;21275;-61
2021/10/16 05:09:24;;;;;;;48.65;25.32;;;;;;;5.34;79.16;101165.13;1774073;79;21224;-60
2021/10/16 05:12:31;;;;;;;43.78;22.93;;;;;;;5.51;79.10;101159.19;1753620;82;21349;-60
2021/10/16 05:15:37;;;;;;;53.17;27.10;;;;;;;5.67;78.88;101162.38;1753384;80;21377;-61
2021/10/16 05:18:43;;;;;;;45.52;22.95;;;;;;;5.74;78.42;101149.16;1753632;82;21211;-61
2021/10/16 05:21:49;;;;;;;41.40;20.70;;;;;;;5.77;77.95;101147.03;1760510;80;21848;-60
2021/10/16 05:24:54;;;;;;;56.25;26.65;;;;;;;5.74;77.52;101139.66;1755537;80;21477;-60
2021/10/16 05:28:02;;;;;;;58.92;22.42;;;;;;;5.72;77.06;101141.63;1771413;79;21347;-61
2021/10/16 05:31:06;;;;;;;47.80;22.15;;;;;;;5.65;76.76;101144.47;1775159;80;21410;-60
2021/10/16 05:34:12;;;;;;;66.87;26.57;;;;;;;5.63;76.73;101143.72;1774612;81;21834;-60
2021/10/16 05:37:17;;;;;;;71.42;30.35;;;;;;;5.63;76.90;101144.59;1775053;81;21860;-60
2021/10/16 05:40:24;;;;;;;65.97;27.45;;;;;;;5.67;77.07;101147.92;1774099;81;21975;-60
2021/10/16 05:43:29;;;;;;;63.20;29.77;;;;;;;5.72;77.22;101143.83;1775201;81;21169;-60
2021/10/16 05:46:36;;;;;;;50.17;24.55;;;;;;;5.74;77.33;101145.93;1767514;79;21843;-60
2021/10/16 05:49:40;;;;;;;44.42;24.43;;;;;;;5.81;77.64;101140.38;1768118;80;21224;-60
2021/10/16 05:52:47;;;;;;;38.00;23.22;;;;;;;5.91;77.68;101137.27;1769877;80;21728;-60
2021/10/16 05:55:53;;;;;;;48.78;25.45;;;;;;;5.98;77.67;101135.78;1767983;80;21721;-61
2021/10/16 05:58:59;;;;;;;59.58;30.45;;;;;;;6.05;77.66;101132.05;1769178;80;21200;-60
2021/10/16 06:02:05;;;;;;;58.20;30.37;;;;;;;6.13;77.75;101142.27;1768323;80;21192;-61
2021/10/16 06:05:14;;;;;;;64.17;30.45;;;;;;;6.22;77.75;101136.92;1768579;80;21227;-60
2021/10/16 06:08:21;;;;;;;47.90;28.47;;;;;;;6.32;77.80;101123.42;1750264;80;21889;-60
2021/10/16 06:11:28;;;;;;;51.50;27.27;;;;;;;6.39;77.82;101120.03;1768514;80;21220;-61
2021/10/16 06:14:36;;;;;;;46.98;24.87;;;;;;;6.47;77.93;101103.92;1768823;80;21299;-60
2021/10/16 06:17:43;;;;;;;37.13;21.17;;;;;;;6.61;78.37;101102.75;1768749;80;21212;-62
2021/10/16 06:20:50;;;;;;;43.92;20.92;;;;;;;6.77;78.44;101095.81;1768927;80;21259;-61
2021/10/16 06:23:56;;;;;;;37.83;19.50;;;;;;;6.91;78.40;101094.10;1769019;80;21196;-61
2021/10/16 06:27:03;;;;;;;35.28;18.30;;;;;;;7.05;78.15;101092.41;1771886;80;21193;-62
2021/10/16 06:30:10;;;;;;;36.28;19.87;;;;;;;7.20;77.77;101103.28;1792982;79;21590;-61
2021/10/16 06:33:18;;;;;;;36.00;20.23;;;;;;;7.35;77.41;101109.22;1769890;80;21409;-60
2021/10/16 06:36:24;;;;;;;35.75;18.82;;;;;;;7.50;76.89;101101.89;1775072;80;21346;-64
2021/10/16 06:39:30;;;;;;;34.38;19.37;;;;;;;7.66;76.36;101102.71;1772882;79;21369;-61
2021/10/16 06:42:36;;;;;;;31.87;17.48;;;;;;;7.79;76.05;101107.91;1780632;80;21349;-60
2021/10/16 06:45:45;;;;;;;47.48;23.95;;;;;;;7.92;75.84;101108.02;1773459;77;21239;-60
2021/10/16 06:48:52;;;;;;;44.55;24.12;;;;;;;8.05;75.43;101108.61;1778272;80;21533;-61
2021/10/16 06:51:59;;;;;;;59.83;27.10;;;;;;;8.12;75.09;101111.11;1779988;80;21228;-60
2021/10/16 06:55:04;;;;;;;49.95;24.27;;;;;;;8.21;75.00;101106.19;1779233;79;21354;-61
2021/10/16 06:58:10;;;;;;;36.35;20.82;;;;;;;8.36;75.02;101103.41;1779209;80;21337;-60
2021/10/16 07:01:15;;;;;;;28.42;18.00;;;;;;;8.53;74.96;101101.30;1779733;79;21549;-60
2021/10/16 07:04:22;;;;;;;29.60;17.12;;;;;;;8.67;74.45;101101.37;1779604;79;21325;-61
2021/10/16 07:07:29;;;;;;;27.13;16.82;;;;;;;8.79;73.96;101102.42;1779595;80;21322;-61
2021/10/16 07:10:34;;;;;;;28.52;17.40;;;;;;;8.90;73.28;101112.30;1779794;79;21334;-60
2021/10/16 07:13:39;;;;;;;31.50;18.32;;;;;;;9.02;73.17;101111.14;1780323;80;21377;-60
2021/10/16 07:16:48;;;;;;;29.48;17.87;;;;;;;9.14;73.10;101114.03;1780444;80;21876;-61
2021/10/16 07:19:55;;;;;;;34.78;19.77;;;;;;;9.24;72.89;101097.61;1779848;79;21409;-61
2021/10/16 07:23:00;;;;;;;27.00;16.80;;;;;;;9.36;72.80;101102.73;1781440;80;21390;-60
2021/10/16 07:26:06;;;;;;;27.50;17.12;;;;;;;9.50;72.49;101104.96;1777936;79;21748;-61
2021/10/16 07:29:15;;;;;;;27.77;17.62;;;;;;;9.65;72.22;101102.59;1779987;79;21373;-61
2021/10/16 07:32:22;;;;;;;27.48;16.90;;;;;;;9.77;71.93;101109.06;1759554;80;21407;-60
2021/10/16 07:35:27;;;;;;;25.43;16.57;;;;;;;9.92;71.93;101102.08;1780967;79;21389;-61
2021/10/16 07:38:33;;;;;;;29.42;17.57;;;;;;;10.08;71.73;101105.02;1780858;80;21397;-61
2021/10/16 07:41:38;;;;;;;26.75;16.37;;;;;;;10.23;71.58;101102.08;1780161;80;21347;-61
2021/10/16 07:44:43;;;;;;;26.27;16.02;;;;;;;10.39;71.50;101102.73;1780767;79;21272;-61
2021/10/16 07:47:49;;;;;;;35.10;15.95;;;;;;;10.53;71.35;101089.36;1780798;78;21382;-63
2021/10/16 07:50:54;;;;;;;30.65;15.95;;;;;;;10.69;71.00;101089.98;1779447;79;21899;-62
2021/10/16 07:54:02;;;;;;;25.68;14.98;;;;;;;10.85;70.70;101083.77;1780291;79;21262;-62
2021/10/16 07:57:08;;;;;;;27.37;15.18;;;;;;;11.01;70.20;101074.29;1780304;80;21358;-62
2021/10/16 08:00:15;;;;;;;28.15;16.05;;;;;;;11.15;69.76;101076.42;1781169;79;21223;-61
2021/10/16 08:03:22;;;;;;;22.60;14.87;;;;;;;11.30;69.49;101083.03;1780657;80;21354;-62
2021/10/16 08:06:29;;;;;;;23.05;14.87;;;;;;;11.48;68.97;101076.97;1780509;80;21405;-61
2021/10/16 08:09:35;;;;;;;22.13;13.95;;;;;;;11.66;68.42;101072.25;1780735;79;22037;-61
2021/10/16 08:12:42;;;;;;;20.60;13.10;;;;;;;11.87;67.89;101066.69;1780768;80;21382;-61
2021/10/16 08:15:50;;;;;;;19.75;11.90;;;;;;;12.04;67.00;101071.67;1780287;79;21376;-62
2021/10/16 08:18:57;;;;;;;20.92;11.90;;;;;;;12.16;66.19;101072.22;1780784;80;21212;-60
2021/10/16 08:22:03;;;;;;;20.23;11.78;;;;;;;12.34;65.82;101073.78;1779878;80;21862;-61
2021/10/16 08:25:09;;;;;;;17.40;10.82;;;;;;;12.58;65.37;101071.55;1780360;79;21235;-61
2021/10/16 08:28:20;;;;;;;22.30;10.53;;;;;;;12.81;64.10;101065.72;1780883;80;21413;-62
2021/10/16 08:31:25;;;;;;;12.80;9.43;;;;;;;12.97;63.27;101069.28;1780130;80;21416;-62
2021/10/16 08:34:30;;;;;;;15.85;8.85;;;;;;;13.17;62.61;101060.17;1780979;79;21207;-61
2021/10/16 08:37:37;;;;;;;17.65;8.75;;;;;;;13.38;61.73;101062.67;1780983;80;21346;-60
2021/10/16 08:40:44;;;;;;;15.08;8.68;;;;;;;13.58;61.22;101058.13;1780180;79;21243;-61
2021/10/16 08:43:51;;;;;;;19.27;8.85;;;;;;;13.77;60.43;101061.31;1780054;80;21361;-62
2021/10/16 08:46:57;;;;;;;11.93;7.45;;;;;;;13.99;59.40;101059.63;1781121;80;21818;-62
2021/10/16 08:50:05;;;;;;;11.57;7.53;;;;;;;14.14;58.55;101044.92;1779970;79;21346;-62
2021/10/16 08:53:12;;;;;;;9.88;5.92;;;;;;;14.25;57.64;101044.53;1781099;80;21823;-62
2021/10/16 08:56:20;;;;;;;8.25;5.20;;;;;;;14.42;56.43;101039.73;1781532;79;21349;-61
2021/10/16 08:59:26;;;;;;;9.93;5.15;;;;;;;14.55;55.80;101035.33;1781407;79;21873;-60
2021/10/16 09:02:33;;;;;;;10.20;5.05;;;;;;;14.68;54.97;101042.42;1781016;80;21354;-61
2021/10/16 09:05:41;;;;;;;8.55;5.65;;;;;;;14.79;53.72;101039.22;1747828;80;21345;-61
2021/10/16 09:09:04;;;;;;;11.35;5.05;;;;;;;14.91;53.51;101028.59;1781247;80;21381;-62
2021/10/16 09:12:10;;;;;;;8.20;5.08;;;;;;;14.97;52.99;101021.81;1781605;80;21259;-61
2021/10/16 09:15:20;;;;;;;10.58;5.30;;;;;;;15.06;52.27;101023.97;1747910;80;21187;-61
2021/10/16 09:18:25;;;;;;;10.68;5.35;;;;;;;15.11;52.08;101022.85;1780783;80;21362;-62
2021/10/16 09:21:32;;;;;;;8.45;4.28;;;;;;;15.11;51.60;101024.23;1731304;80;21417;-61
2021/10/16 09:24:47;;;;;;;7.53;4.83;;;;;;;15.14;51.39;101018.88;1731819;80;21357;-61
2021/10/16 09:27:53;;;;;;;9.58;5.00;;;;;;;15.14;51.44;101023.02;1755138;80;21224;-61
2021/10/16 09:31:00;;;;;;;10.72;4.87;;;;;;;15.14;50.71;101021.13;1756408;79;21361;-61
2021/10/16 09:34:07;;;;;;;7.20;4.50;;;;;;;15.16;50.22;101019.55;1751142;80;21270;-61
2021/10/16 09:37:28;;;;;;;9.85;4.67;;;;;;;15.16;49.83;101020.39;1761607;80;21768;-61
2021/10/16 09:40:46;;;;;;;10.48;4.62;;;;;;;15.16;49.75;101014.88;1759505;80;21238;-61
2021/10/16 09:43:51;;;;;;;8.23;4.83;;;;;;;15.20;50.43;101013.47;1732731;81;21187;-60
2021/10/16 09:47:21;;;;;;;5.85;4.12;;;;;;;15.25;50.24;101015.13;1775900;80;21274;-61
2021/10/16 09:50:27;;;;;;;7.50;4.12;;;;;;;15.27;50.53;101011.63;1726907;81;21223;-61
2021/10/16 09:53:33;;;;;;;9.83;4.17;;;;;;;15.26;49.67;100993.38;1739255;80;21831;-61
2021/10/16 09:56:39;;;;;;;7.83;4.15;;;;;;;15.23;49.37;100991.01;1763419;81;21879;-61
2021/10/16 09:59:45;;;;;;;7.15;4.22;;;;;;;15.16;48.67;100991.42;1763968;81;21884;-61
2021/10/16 10:02:53;;;;;;;9.18;4.17;;;;;;;15.11;48.29;100989.76;1757554;80;21220;-61
2021/10/16 10:06:01;;;;;;;9.85;4.60;;;;;;;15.10;48.25;100985.30;1743257;80;21311;-61
2021/10/16 10:09:07;;;;;;;8.83;4.45;;;;;;;15.11;48.28;100988.92;1735647;81;21200;-61
2021/10/16 10:12:13;;;;;;;9.28;4.75;;;;;;;15.13;48.00;100985.46;1734595;82;21829;-61
2021/10/16 10:15:19;;;;;;;11.20;5.75;;;;;;;15.18;47.65;100978.82;1734584;81;21196;-62
2021/10/16 10:21:49;;;;;;;9.65;5.33;;;;;;;15.26;47.03;100969.94;1735668;82;21563;-61
2021/10/16 10:24:59;;;;;;;10.00;4.65;;;;;;;15.30;46.83;100962.14;1735988;81;21377;-61
2021/10/16 10:28:05;;;;;;;14.90;7.28;;;;;;;15.34;46.68;100956.55;1749348;79;21537;-61
2021/10/16 10:31:10;;;;;;;14.18;6.97;;;;;;;15.42;46.63;100964.76;1732124;81;21641;-61
2021/10/16 10:34:26;;;;;;;11.10;5.58;;;;;;;15.44;46.68;100954.39;1746188;81;21611;-61
2021/10/16 10:37:52;;;;;;;12.60;6.05;;;;;;;15.47;46.42;100942.96;1762344;81;21176;-59
2021/10/16 10:40:58;;;;;;;16.90;7.05;;;;;;;15.48;46.06;100939.14;1735362;80;21607;-61
2021/10/16 10:44:04;;;;;;;8.13;4.80;;;;;;;15.44;45.99;100933.19;1734928;81;21681;-61
2021/10/16 10:47:39;;;;;;;8.95;4.50;;;;;;;15.37;45.68;100929.44;1735816;82;21847;-60
2021/10/16 10:50:57;;;;;;;7.58;4.58;;;;;;;15.32;45.49;100922.81;1739040;79;21350;-60
2021/10/16 10:54:17;;;;;;;8.75;5.65;;;;;;;15.23;45.48;100917.05;1740313;81;21175;-62
2021/10/16 10:57:26;;;;;;;10.05;5.65;;;;;;;15.18;45.80;100910.73;1740095;82;21176;-61
2021/10/16 11:00:42;;;;;;;11.43;5.47;;;;;;;15.15;45.94;100906.98;1722979;82;21250;-61
2021/10/16 11:03:51;;;;;;;8.80;5.17;;;;;;;15.11;46.15;100902.89;1755423;81;21187;-62
2021/10/16 11:07:05;;;;;;;15.10;5.33;;;;;;;15.06;46.33;100904.02;1684000;85;21811;-61
2021/10/16 11:10:13;;;;;;;12.58;5.17;;;;;;;15.03;46.25;100897.51;1729706;81;21220;-61
2021/10/16 11:13:21;;;;;;;11.38;5.53;;;;;;;14.97;46.49;100885.84;1729056;83;21848;-62
2021/10/16 11:16:26;;;;;;;10.55;4.75;;;;;;;14.94;46.58;100891.74;1729096;81;21990;-60
2021/10/16 11:19:31;;;;;;;11.40;5.47;;;;;;;14.90;46.69;100894.56;1751374;80;21181;-61
2021/10/16 11:22:54;;;;;;;9.90;5.12;;;;;;;14.86;46.30;100893.22;1757481;81;21464;-60
2021/10/16 11:26:06;;;;;;;;;;;;;;;14.84;46.35;100892.03;1758602;81;21569;-62
2021/10/16 11:29:11;;;;;;;8.90;4.83;;;;;;;14.80;46.45;100887.09;1742709;81;20252;-60
2021/10/16 11:32:27;;;;;;;7.70;4.60;;;;;;;14.80;46.28;100889.34;1742917;81;21200;-61
2021/10/16 11:35:33;;;;;;;9.98;4.22;;;;;;;14.83;46.32;100895.84;1742720;81;21835;-61
2021/10/16 11:38:40;;;;;;;11.68;4.87;;;;;;;14.91;46.64;100893.50;1744336;80;21207;-61
2021/10/16 11:41:47;;;;;;;8.00;4.90;;;;;;;14.98;45.93;100890.33;1757791;81;21184;-61
2021/10/16 11:44:52;;;;;;;9.55;4.58;;;;;;;15.04;45.84;100892.31;1758160;80;21215;-61
2021/10/16 11:48:04;;;;;;;7.95;4.20;;;;;;;15.08;45.75;100898.30;1758766;81;21263;-61
2021/10/16 11:51:13;;;;;;;7.50;4.03;;;;;;;15.13;45.79;100891.70;1758378;80;21215;-61
2021/10/16 11:54:25;;;;;;;10.00;4.22;;;;;;;15.12;45.56;100892.20;1781059;79;21199;-61
2021/10/16 11:57:34;;;;;;;6.58;3.60;;;;;;;15.12;45.16;100878.42;1781366;80;21433;-61
2021/10/16 12:00:41;;;;;;;6.72;4.00;;;;;;;15.12;45.16;100878.42;1781102;79;21798;-62
2021/10/16 12:03:51;;;;;;;5.70;3.92;;;;;;;15.12;45.54;100878.93;1764799;80;21922;-62
2021/10/16 12:06:59;;;;;;;9.28;4.28;;;;;;;15.11;45.57;100876.69;1781916;80;21616;-60
2021/10/16 12:10:36;;;;;;;8.93;4.25;;;;;;;15.11;45.35;100877.23;1781773;79;21357;-62
2021/10/16 12:14:06;;;;;;;8.58;3.75;;;;;;;15.07;44.90;100878.65;1782404;80;21985;-62
2021/10/16 12:17:15;;;;;;;10.72;5.83;;;;;;;15.08;45.05;100879.00;1782510;80;21365;-61
2021/10/16 12:20:20;;;;;;;11.18;7.67;;;;;;;15.10;44.82;100874.13;1751473;80;21355;-61
2021/10/16 12:23:28;;;;;;;9.25;5.17;;;;;;;15.13;44.89;100875.98;1751310;82;21210;-62
2021/10/16 12:26:40;;;;;;;9.80;4.53;;;;;;;15.12;44.82;100881.17;1751664;82;21266;-62
2021/10/16 12:29:49;;;;;;;8.40;4.37;;;;;;;15.08;44.83;100877.08;1772134;78;21223;-61
2021/10/16 12:33:15;;;;;;;7.20;3.83;;;;;;;15.08;44.71;100873.48;1747545;81;21353;-61
2021/10/16 12:36:21;;;;;;;7.55;4.03;;;;;;;15.03;44.45;100872.14;1744873;82;21244;-61
2021/10/16 12:39:39;;;;;;;10.55;4.90;;;;;;;15.00;44.41;100873.91;1740095;80;21350;-60
2021/10/16 12:42:43;;;;;;;10.32;4.72;;;;;;;14.98;44.77;100875.16;1745438;81;21381;-61
2021/10/16 12:45:50;;;;;;;8.58;4.47;;;;;;;15.00;44.85;100873.05;1780064;80;21208;-61
2021/10/16 12:48:57;;;;;;;19.27;13.45;;;;;;;15.01;44.62;100874.77;1745769;82;21298;-62
2021/10/16 12:52:05;;;;;;;13.53;8.45;;;;;;;15.05;44.63;100873.33;1781206;80;21247;-60
2021/10/16 12:55:27;;;;;;;9.55;6.47;;;;;;;15.10;44.73;100878.27;1750026;82;21362;-61
2021/10/16 12:58:33;;;;;;;9.60;5.47;;;;;;;15.14;44.22;100875.47;1750154;82;21330;-62
2021/10/16 13:01:38;;;;;;;12.35;6.83;;;;;;;15.11;44.52;100869.80;1749227;82;21263;-60
2021/10/16 13:04:59;;;;;;;10.88;6.50;;;;;;;15.07;44.45;100870.38;1749120;82;21196;-61
2021/10/16 13:08:05;;;;;;;12.28;7.50;;;;;;;15.01;44.47;100872.02;1752498;80;21199;-61
2021/10/16 13:11:14;;;;;;;11.88;6.95;;;;;;;14.93;44.61;100862.48;1739147;82;21234;-60
2021/10/16 13:14:20;;;;;;;8.65;5.33;;;;;;;14.89;44.84;100863.89;1748054;82;21188;-62
2021/10/16 13:17:24;;;;;;;9.38;5.47;;;;;;;14.83;44.81;100861.91;1746613;82;21330;-62
2021/10/16 13:20:30;;;;;;;15.83;6.08;;;;;;;14.78;44.61;100855.59;1749221;82;21361;-59
2021/10/16 13:23:36;;;;;;;11.57;6.62;;;;;;;14.71;45.02;100849.67;1750741;82;21228;-60
2021/10/16 13:26:45;;;;;;;11.68;5.80;;;;;;;14.66;45.41;100841.11;1747924;82;21717;-62
2021/10/16 13:29:52;;;;;;;10.35;5.30;;;;;;;14.59;45.66;100841.53;1748449;82;21910;-60
2021/10/16 13:32:59;;;;;;;18.25;8.40;;;;;;;14.53;45.77;100839.03;1713262;83;21381;-61
2021/10/16 13:36:04;;;;;;;14.10;7.15;;;;;;;14.48;45.92;100843.38;1684922;85;21235;-61
2021/10/16 13:39:11;;;;;;;15.78;8.80;;;;;;;14.42;46.23;100847.77;1750740;82;21736;-60
2021/10/16 13:42:19;;;;;;;12.37;8.20;;;;;;;14.35;46.61;100848.17;1750910;82;21353;-60
2021/10/16 13:45:26;;;;;;;13.25;8.75;;;;;;;14.31;47.10;100841.86;1749558;82;21951;-61
2021/10/16 13:48:32;;;;;;;16.00;10.20;;;;;;;14.26;47.68;100847.08;1744428;82;21440;-61
2021/10/16 13:51:38;;;;;;;15.35;10.58;;;;;;;14.21;48.26;100845.37;1724627;82;21384;-60
2021/10/16 13:54:43;;;;;;;46.30;27.55;;;;;;;14.16;48.80;100840.97;1710616;79;21903;-62
2021/10/16 13:57:49;;;;;;;56.15;31.48;;;;;;;14.10;49.21;100841.70;1772598;79;21698;-61
2021/10/16 14:00:56;;;;;;;35.03;19.42;;;;;;;14.03;49.58;100846.27;1774909;79;21360;-59
2021/10/16 14:04:03;;;;;;;23.30;12.82;;;;;;;13.98;49.77;100844.58;1778085;79;21412;-60
2021/10/16 14:07:09;;;;;;;19.48;10.80;;;;;;;13.93;50.01;100841.53;1775083;81;21251;-61
2021/10/16 14:10:18;;;;;;;29.10;16.40;;;;;;;13.87;50.16;100840.39;1774578;79;21428;-60
2021/10/16 14:13:25;;;;;;;49.30;26.30;;;;;;;13.82;50.60;100837.84;1774445;81;21380;-60
2021/10/16 14:16:31;;;;;;;38.13;21.48;;;;;;;13.78;50.93;100839.27;1774766;81;21420;-60
2021/10/16 14:19:36;;;;;;;22.05;15.48;;;;;;;13.73;51.33;100832.92;1774975;79;21365;-60
2021/10/16 14:22:44;;;;;;;26.37;14.43;;;;;;;13.69;51.74;100843.11;1774918;81;21334;-59
2021/10/16 14:25:51;;;;;;;25.85;14.15;;;;;;;13.64;52.04;100838.71;1774668;79;21885;-60